sensor_id;sensor_type;location;lat;lon;timestamp;P1;durP1;ratioP1;P2;durP2;ratioP2
45232;SDS011;30969;51.052;17.056;2023-04-25T04:55:09;10.60;;;5.85;;
45232;SDS011;30969;51.052;17.056;2023-04-25T05:00:13;8.40;;;4.80;;
45232;SDS011;30969;51.052;17.056;2023-04-25T05:05:18;9.32;;;4.63;;
45232;SDS011;30969;51.052;17.056;2023-04-25T05:10:23;9.60;;;5.10;;
45232;SDS011;30969;51.052;17.056;2023-04-25T05:15:27;7.63;;;5.00;;
45232;SDS011;30969;51.052;17.056;2023-04-25T05:20:31;7.82;;;5.35;;
45232;SDS011;30969;51.052;17.056;2023-04-25T05:25:36;9.35;;;5.15;;
45232;SDS011;30969;51.052;17.056;2023-04-25T05:30:39;10.73;;;5.47;;
45232;SDS011;30969;51.052;17.056;2023-04-25T05:35:43;8.13;;;5.40;;
45232;SDS011;30969;51.052;17.056;2023-04-25T05:40:48;9.75;;;4.65;;
45232;SDS011;30969;51.052;17.056;2023-04-25T05:45:52;6.32;;;4.63;;
45232;SDS011;30969;51.052;17.056;2023-04-25T05:50:56;8.95;;;4.53;;
45232;SDS011;30969;51.052;17.056;2023-04-25T05:56:00;7.93;;;4.72;;
45232;SDS011;30969;51.052;17.056;2023-04-25T06:01:04;8.13;;;5.60;;
45232;SDS011;30969;51.052;17.056;2023-04-25T06:06:07;6.43;;;5.00;;
45232;SDS011;30969;51.052;17.056;2023-04-25T06:11:12;8.13;;;4.65;;
45232;SDS011;30969;51.052;17.056;2023-04-25T06:16:17;8.23;;;4.55;;
45232;SDS011;30969;51.052;17.056;2023-04-25T06:21:20;8.82;;;4.28;;
45232;SDS011;30969;51.052;17.056;2023-04-25T06:26:25;8.88;;;4.38;;
45232;SDS011;30969;51.052;17.056;2023-04-25T06:31:28;6.53;;;3.85;;
45232;SDS011;30969;51.052;17.056;2023-04-25T06:36:34;8.60;;;3.95;;
45232;SDS011;30969;51.052;17.056;2023-04-25T06:41:39;5.68;;;3.47;;
45232;SDS011;30969;51.052;17.056;2023-04-25T06:46:42;5.05;;;3.33;;
45232;SDS011;30969;51.052;17.056;2023-04-25T06:51:46;10.32;;;4.20;;
45232;SDS011;30969;51.052;17.056;2023-04-25T06:56:51;7.88;;;3.45;;
45232;SDS011;30969;51.052;17.056;2023-04-25T07:01:54;6.55;;;3.50;;
45232;SDS011;30969;51.052;17.056;2023-04-25T07:06:58;11.65;;;3.47;;
45232;SDS011;30969;51.052;17.056;2023-04-25T07:12:04;6.68;;;3.55;;
45232;SDS011;30969;51.052;17.056;2023-04-25T07:34:03;5.65;;;3.30;;
45232;SDS011;30969;51.052;17.056;2023-04-25T07:39:07;4.68;;;2.60;;
45232;SDS011;30969;51.052;17.056;2023-04-25T07:44:11;5.07;;;2.88;;
45232;SDS011;30969;51.052;17.056;2023-04-25T07:49:15;7.20;;;3.83;;
45232;SDS011;30969;51.052;17.056;2023-04-25T07:54:19;8.20;;;3.88;;
45232;SDS011;30969;51.052;17.056;2023-04-25T07:59:23;5.78;;;3.00;;
45232;SDS011;30969;51.052;17.056;2023-04-25T08:04:31;8.15;;;3.67;;
45232;SDS011;30969;51.052;17.056;2023-04-25T08:09:35;8.85;;;4.47;;
45232;SDS011;30969;51.052;17.056;2023-04-25T08:14:38;9.98;;;4.25;;
45232;SDS011;30969;51.052;17.056;2023-04-25T08:19:43;7.70;;;4.22;;
45232;SDS011;30969;51.052;17.056;2023-04-25T08:24:47;8.13;;;5.00;;
45232;SDS011;30969;51.052;17.056;2023-04-25T08:29:50;10.30;;;5.97;;
45232;SDS011;30969;51.052;17.056;2023-04-25T08:34:55;10.82;;;6.05;;
45232;SDS011;30969;51.052;17.056;2023-04-25T08:39:58;6.18;;;5.18;;
45232;SDS011;30969;51.052;17.056;2023-04-25T08:45:02;14.65;;;6.10;;
45232;SDS011;30969;51.052;17.056;2023-04-25T08:50:09;12.20;;;7.03;;
45232;SDS011;30969;51.052;17.056;2023-04-25T08:55:12;12.48;;;7.47;;
45232;SDS011;30969;51.052;17.056;2023-04-25T09:00:17;9.73;;;6.68;;
45232;SDS011;30969;51.052;17.056;2023-04-25T09:05:23;9.50;;;5.65;;
45232;SDS011;30969;51.052;17.056;2023-04-25T09:10:26;7.22;;;5.38;;
45232;SDS011;30969;51.052;17.056;2023-04-25T09:15:31;10.85;;;5.22;;
45232;SDS011;30969;51.052;17.056;2023-04-25T09:20:38;10.43;;;4.30;;
45232;SDS011;30969;51.052;17.056;2023-04-25T09:26:01;6.30;;;4.05;;
45232;SDS011;30969;51.052;17.056;2023-04-25T09:31:04;5.95;;;3.30;;
45232;SDS011;30969;51.052;17.056;2023-04-25T09:36:09;5.57;;;3.72;;
45232;SDS011;30969;51.052;17.056;2023-04-25T09:41:14;7.80;;;4.40;;
45232;SDS011;30969;51.052;17.056;2023-04-25T09:46:32;6.43;;;4.28;;
45232;SDS011;30969;51.052;17.056;2023-04-25T09:51:38;6.25;;;3.80;;
45232;SDS011;30969;51.052;17.056;2023-04-25T09:56:41;7.93;;;3.92;;
45232;SDS011;30969;51.052;17.056;2023-04-25T10:01:46;5.38;;;3.55;;
45232;SDS011;30969;51.052;17.056;2023-04-25T10:06:53;6.07;;;4.60;;
45232;SDS011;30969;51.052;17.056;2023-04-25T10:11:57;8.43;;;5.00;;
45232;SDS011;30969;51.052;17.056;2023-04-25T10:17:01;7.32;;;5.15;;
45232;SDS011;30969;51.052;17.056;2023-04-25T10:22:07;5.68;;;4.68;;
45232;SDS011;30969;51.052;17.056;2023-04-25T10:27:16;10.20;;;5.38;;
45232;SDS011;30969;51.052;17.056;2023-04-25T10:32:20;7.75;;;4.57;;
45232;SDS011;30969;51.052;17.056;2023-04-25T10:37:25;7.22;;;4.88;;
45232;SDS011;30969;51.052;17.056;2023-04-25T10:42:28;8.85;;;4.13;;
45232;SDS011;30969;51.052;17.056;2023-04-25T10:47:34;7.07;;;5.03;;
45232;SDS011;30969;51.052;17.056;2023-04-25T10:52:40;5.25;;;4.05;;
45232;SDS011;30969;51.052;17.056;2023-04-25T10:57:45;6.72;;;3.67;;
45232;SDS011;30969;51.052;17.056;2023-04-25T11:02:51;7.90;;;3.85;;
45232;SDS011;30969;51.052;17.056;2023-04-25T11:07:58;8.45;;;4.03;;
45232;SDS011;30969;51.052;17.056;2023-04-25T11:13:10;6.35;;;3.67;;
45232;SDS011;30969;51.052;17.056;2023-04-25T11:18:15;8.25;;;3.00;;
45232;SDS011;30969;51.052;17.056;2023-04-25T11:23:21;4.53;;;2.28;;
45232;SDS011;30969;51.052;17.056;2023-04-25T11:28:25;4.45;;;2.22;;
45232;SDS011;30969;51.052;17.056;2023-04-25T11:33:30;7.47;;;3.08;;
45232;SDS011;30969;51.052;17.056;2023-04-25T11:38:35;3.50;;;2.03;;
45232;SDS011;30969;51.052;17.056;2023-04-25T11:43:39;4.50;;;2.00;;
45232;SDS011;30969;51.052;17.056;2023-04-25T11:48:44;3.90;;;1.70;;
45232;SDS011;30969;51.052;17.056;2023-04-25T11:53:49;5.05;;;2.20;;
45232;SDS011;30969;51.052;17.056;2023-04-25T11:58:56;2.92;;;1.73;;
45232;SDS011;30969;51.052;17.056;2023-04-25T12:04:09;3.78;;;1.60;;
45232;SDS011;30969;51.052;17.056;2023-04-25T12:09:17;5.68;;;2.13;;
45232;SDS011;30969;51.052;17.056;2023-04-25T12:14:23;3.42;;;2.08;;
45232;SDS011;30969;51.052;17.056;2023-04-25T12:19:31;3.17;;;1.80;;
45232;SDS011;30969;51.052;17.056;2023-04-25T12:24:37;3.47;;;1.50;;
45232;SDS011;30969;51.052;17.056;2023-04-25T12:29:49;5.35;;;2.30;;
45232;SDS011;30969;51.052;17.056;2023-04-25T12:34:54;8.00;;;3.47;;
45232;SDS011;30969;51.052;17.056;2023-04-25T12:39:58;5.88;;;2.05;;
45232;SDS011;30969;51.052;17.056;2023-04-25T12:45:02;5.10;;;2.03;;
45232;SDS011;30969;51.052;17.056;2023-04-25T12:50:06;5.20;;;1.90;;
45232;SDS011;30969;51.052;17.056;2023-04-25T12:55:12;4.00;;;1.90;;
45232;SDS011;30969;51.052;17.056;2023-04-25T13:00:15;2.25;;;1.35;;
45232;SDS011;30969;51.052;17.056;2023-04-25T13:05:21;3.75;;;1.77;;
45232;SDS011;30969;51.052;17.056;2023-04-25T13:10:26;5.63;;;2.47;;
45232;SDS011;30969;51.052;17.056;2023-04-25T13:15:29;2.05;;;1.52;;
45232;SDS011;30969;51.052;17.056;2023-04-25T13:20:33;3.00;;;1.50;;
45232;SDS011;30969;51.052;17.056;2023-04-25T13:25:40;1.67;;;1.33;;
45232;SDS011;30969;51.052;17.056;2023-04-25T13:30:43;5.43;;;1.27;;
45232;SDS011;30969;51.052;17.056;2023-04-25T13:35:47;3.20;;;1.40;;
45232;SDS011;30969;51.052;17.056;2023-04-25T13:40:57;4.18;;;1.88;;
45232;SDS011;30969;51.052;17.056;2023-04-25T13:46:00;2.88;;;1.83;;
45232;SDS011;30969;51.052;17.056;2023-04-25T13:51:04;4.13;;;1.48;;
45232;SDS011;30969;51.052;17.056;2023-04-25T13:56:09;2.60;;;1.38;;
45232;SDS011;30969;51.052;17.056;2023-04-25T14:01:13;17.48;;;2.30;;
45232;SDS011;30969;51.052;17.056;2023-04-25T14:06:17;5.07;;;1.83;;
45232;SDS011;30969;51.052;17.056;2023-04-25T14:11:27;2.97;;;1.52;;
45232;SDS011;30969;51.052;17.056;2023-04-25T14:16:30;2.30;;;1.50;;
45232;SDS011;30969;51.052;17.056;2023-04-25T14:21:34;5.80;;;1.85;;
45232;SDS011;30969;51.052;17.056;2023-04-25T14:26:39;4.25;;;1.30;;
45232;SDS011;30969;51.052;17.056;2023-04-25T14:31:44;3.67;;;1.52;;
45232;SDS011;30969;51.052;17.056;2023-04-25T14:36:48;2.05;;;1.48;;
45232;SDS011;30969;51.052;17.056;2023-04-25T14:41:52;4.00;;;1.90;;
45232;SDS011;30969;51.052;17.056;2023-04-25T14:46:56;3.65;;;1.65;;
45232;SDS011;30969;51.052;17.056;2023-04-25T14:51:59;3.90;;;1.40;;
45232;SDS011;30969;51.052;17.056;2023-04-25T14:57:05;2.10;;;1.50;;
45232;SDS011;30969;51.052;17.056;2023-04-25T15:02:09;7.10;;;1.77;;
45232;SDS011;30969;51.052;17.056;2023-04-25T15:07:13;4.18;;;1.60;;
45232;SDS011;30969;51.052;17.056;2023-04-25T15:12:20;6.22;;;1.83;;
45232;SDS011;30969;51.052;17.056;2023-04-25T15:17:24;5.13;;;2.22;;
45232;SDS011;30969;51.052;17.056;2023-04-25T15:22:27;5.72;;;2.33;;
45232;SDS011;30969;51.052;17.056;2023-04-25T15:27:32;5.85;;;1.90;;
45232;SDS011;30969;51.052;17.056;2023-04-25T15:32:36;5.50;;;2.08;;
45232;SDS011;30969;51.052;17.056;2023-04-25T15:37:39;3.63;;;1.58;;
45232;SDS011;30969;51.052;17.056;2023-04-25T15:42:45;3.92;;;2.20;;
45232;SDS011;30969;51.052;17.056;2023-04-25T15:47:53;5.95;;;2.20;;
45232;SDS011;30969;51.052;17.056;2023-04-25T15:52:57;6.00;;;2.80;;
45232;SDS011;30969;51.052;17.056;2023-04-25T15:58:03;6.00;;;2.42;;
45232;SDS011;30969;51.052;17.056;2023-04-25T16:03:13;8.02;;;3.00;;
45232;SDS011;30969;51.052;17.056;2023-04-25T16:08:16;5.78;;;2.75;;
45232;SDS011;30969;51.052;17.056;2023-04-25T16:13:21;6.68;;;3.00;;
45232;SDS011;30969;51.052;17.056;2023-04-25T16:18:25;4.90;;;2.92;;
45232;SDS011;30969;51.052;17.056;2023-04-25T16:23:29;5.45;;;2.92;;
45232;SDS011;30969;51.052;17.056;2023-04-25T16:28:34;5.05;;;2.72;;
45232;SDS011;30969;51.052;17.056;2023-04-25T16:33:38;6.47;;;3.10;;
45232;SDS011;30969;51.052;17.056;2023-04-25T16:38:42;4.45;;;2.75;;
45232;SDS011;30969;51.052;17.056;2023-04-25T16:43:47;6.05;;;2.42;;
45232;SDS011;30969;51.052;17.056;2023-04-25T16:48:50;3.50;;;1.90;;
45232;SDS011;30969;51.052;17.056;2023-04-25T16:53:54;2.65;;;1.88;;
45232;SDS011;30969;51.052;17.056;2023-04-25T16:58:59;3.85;;;2.33;;
45232;SDS011;30969;51.052;17.056;2023-04-25T17:04:03;5.40;;;2.72;;
45232;SDS011;30969;51.052;17.056;2023-04-25T17:09:06;4.57;;;2.60;;
45232;SDS011;30969;51.052;17.056;2023-04-25T17:14:12;7.30;;;2.63;;
45232;SDS011;30969;51.052;17.056;2023-04-25T17:19:16;4.43;;;2.63;;
45232;SDS011;30969;51.052;17.056;2023-04-25T17:24:19;6.45;;;3.05;;
45232;SDS011;30969;51.052;17.056;2023-04-25T17:29:25;10.32;;;3.15;;
45232;SDS011;30969;51.052;17.056;2023-04-25T17:34:28;4.80;;;2.80;;
45232;SDS011;30969;51.052;17.056;2023-04-25T17:39:32;4.90;;;2.60;;
45232;SDS011;30969;51.052;17.056;2023-04-25T17:44:37;9.68;;;3.10;;
45232;SDS011;30969;51.052;17.056;2023-04-25T17:49:41;4.20;;;2.60;;
45232;SDS011;30969;51.052;17.056;2023-04-25T17:54:44;7.60;;;3.83;;
45232;SDS011;30969;51.052;17.056;2023-04-25T17:59:51;4.60;;;2.78;;
45232;SDS011;30969;51.052;17.056;2023-04-25T18:04:56;7.35;;;3.15;;
45232;SDS011;30969;51.052;17.056;2023-04-25T18:10:00;7.50;;;3.50;;
45232;SDS011;30969;51.052;17.056;2023-04-25T18:15:08;11.27;;;4.15;;
45232;SDS011;30969;51.052;17.056;2023-04-25T18:20:12;10.88;;;4.30;;
45232;SDS011;30969;51.052;17.056;2023-04-25T18:25:17;9.07;;;3.65;;
45232;SDS011;30969;51.052;17.056;2023-04-25T18:30:22;8.88;;;4.30;;
45232;SDS011;30969;51.052;17.056;2023-04-25T18:35:26;14.18;;;4.07;;
45232;SDS011;30969;51.052;17.056;2023-04-25T18:40:29;12.48;;;5.60;;
45232;SDS011;30969;51.052;17.056;2023-04-25T18:45:34;10.73;;;4.63;;
45232;SDS011;30969;51.052;17.056;2023-04-25T18:50:38;8.93;;;4.75;;
45232;SDS011;30969;51.052;17.056;2023-04-25T18:55:44;13.65;;;4.55;;
45232;SDS011;30969;51.052;17.056;2023-04-25T19:00:49;11.27;;;4.53;;
45232;SDS011;30969;51.052;17.056;2023-04-25T19:05:53;12.98;;;4.35;;
45232;SDS011;30969;51.052;17.056;2023-04-25T19:10:56;11.73;;;4.68;;
45232;SDS011;30969;51.052;17.056;2023-04-25T19:16:09;10.43;;;5.03;;
45232;SDS011;30969;51.052;17.056;2023-04-25T19:21:13;13.00;;;5.40;;
45232;SDS011;30969;51.052;17.056;2023-04-25T19:26:17;11.40;;;5.60;;
45232;SDS011;30969;51.052;17.056;2023-04-25T19:31:23;11.70;;;4.93;;
45232;SDS011;30969;51.052;17.056;2023-04-25T19:36:28;11.52;;;4.80;;
45232;SDS011;30969;51.052;17.056;2023-04-25T19:41:34;14.73;;;4.72;;
45232;SDS011;30969;51.052;17.056;2023-04-25T19:46:42;10.50;;;4.72;;
45232;SDS011;30969;51.052;17.056;2023-04-25T19:51:47;13.13;;;5.97;;
45232;SDS011;30969;51.052;17.056;2023-04-25T19:56:50;17.13;;;4.85;;
45232;SDS011;30969;51.052;17.056;2023-04-25T20:01:55;12.90;;;4.50;;
45232;SDS011;30969;51.052;17.056;2023-04-25T20:06:59;11.60;;;5.00;;
45232;SDS011;30969;51.052;17.056;2023-04-25T20:12:03;15.00;;;5.15;;
45232;SDS011;30969;51.052;17.056;2023-04-25T20:17:09;9.75;;;3.90;;
45232;SDS011;30969;51.052;17.056;2023-04-25T20:22:12;11.63;;;4.22;;
45232;SDS011;30969;51.052;17.056;2023-04-25T20:27:16;12.73;;;4.68;;
45232;SDS011;30969;51.052;17.056;2023-04-25T20:32:21;11.90;;;4.25;;
45232;SDS011;30969;51.052;17.056;2023-04-25T20:37:25;13.40;;;4.57;;
45232;SDS011;30969;51.052;17.056;2023-04-25T20:42:32;12.90;;;4.15;;
45232;SDS011;30969;51.052;17.056;2023-04-25T20:47:37;10.38;;;4.30;;
45232;SDS011;30969;51.052;17.056;2023-04-25T20:52:41;11.05;;;3.92;;
45232;SDS011;30969;51.052;17.056;2023-04-25T20:57:45;10.05;;;3.80;;
45232;SDS011;30969;51.052;17.056;2023-04-25T21:02:49;10.00;;;4.15;;
45232;SDS011;30969;51.052;17.056;2023-04-25T21:07:53;9.30;;;4.80;;
45232;SDS011;30969;51.052;17.056;2023-04-25T21:12:58;12.50;;;4.90;;
45232;SDS011;30969;51.052;17.056;2023-04-25T21:18:03;14.93;;;5.20;;
45232;SDS011;30969;51.052;17.056;2023-04-25T21:23:07;15.63;;;5.85;;
45232;SDS011;30969;51.052;17.056;2023-04-25T21:28:11;16.10;;;5.95;;
45232;SDS011;30969;51.052;17.056;2023-04-25T21:33:16;12.20;;;4.97;;
45232;SDS011;30969;51.052;17.056;2023-04-25T21:38:19;10.85;;;5.43;;
45232;SDS011;30969;51.052;17.056;2023-04-25T21:43:23;13.80;;;5.95;;
45232;SDS011;30969;51.052;17.056;2023-04-25T21:48:28;11.80;;;5.88;;
45232;SDS011;30969;51.052;17.056;2023-04-25T21:53:31;20.15;;;6.82;;
45232;SDS011;30969;51.052;17.056;2023-04-25T21:58:35;14.73;;;6.68;;
45232;SDS011;30969;51.052;17.056;2023-04-25T22:03:40;17.73;;;6.60;;
45232;SDS011;30969;51.052;17.056;2023-04-25T22:08:43;14.50;;;6.35;;
45232;SDS011;30969;51.052;17.056;2023-04-25T22:13:47;16.38;;;6.20;;
45232;SDS011;30969;51.052;17.056;2023-04-25T22:18:53;12.05;;;5.15;;
45232;SDS011;30969;51.052;17.056;2023-04-25T22:23:56;15.55;;;5.82;;
45232;SDS011;30969;51.052;17.056;2023-04-25T22:29:00;11.70;;;5.43;;
